createdAt,value
2022-11-20T00:01:41.680Z,-5.50
2022-11-20T00:04:13.219Z,-5.50
2022-11-20T00:06:42.058Z,-5.50
2022-11-20T00:09:13.811Z,-5.50
2022-11-20T00:11:44.378Z,-5.50
2022-11-20T00:14:13.538Z,-5.40
2022-11-20T00:16:42.470Z,-5.60
2022-11-20T00:19:11.976Z,-5.60
2022-11-20T00:21:40.761Z,-5.50
2022-11-20T00:24:13.147Z,-5.60
2022-11-20T00:26:42.042Z,-5.60
2022-11-20T00:29:12.318Z,-5.80
2022-11-20T00:31:41.136Z,-5.80
2022-11-20T00:34:10.111Z,-5.80
2022-11-20T00:36:39.045Z,-5.80
2022-11-20T00:39:08.084Z,-5.90
2022-11-20T00:41:38.781Z,-6.00
2022-11-20T00:44:07.779Z,-5.90
2022-11-20T00:46:36.942Z,-5.70
2022-11-20T00:49:05.886Z,-5.70
2022-11-20T00:51:34.768Z,-5.80
2022-11-20T00:54:04.347Z,-5.70
2022-11-20T00:56:33.135Z,-5.80
2022-11-20T00:59:04.002Z,-5.60
2022-11-20T01:01:32.903Z,-5.50
2022-11-20T01:04:02.795Z,-5.50
2022-11-20T01:06:33.652Z,-5.60
2022-11-20T01:09:04.066Z,-5.40
2022-11-20T01:11:34.566Z,-5.60
2022-11-20T01:14:07.124Z,-5.60
2022-11-20T01:16:37.601Z,-5.60
2022-11-20T01:19:08.404Z,-5.50
2022-11-20T01:21:39.578Z,-5.70
2022-11-20T01:24:10.637Z,-5.90
2022-11-20T01:26:41.757Z,-5.90
2022-11-20T01:29:16.083Z,-5.90
2022-11-20T01:31:45.621Z,-6.10
2022-11-20T01:34:16.925Z,-6.00
2022-11-20T01:36:47.020Z,-5.80
2022-11-20T01:39:18.098Z,-5.70
2022-11-20T01:42:09.688Z,-5.80
2022-11-20T01:45:02.538Z,-5.70
2022-11-20T01:47:37.089Z,-5.40
2022-11-20T01:50:11.160Z,-5.40
2022-11-20T01:52:45.107Z,-5.40
2022-11-20T01:55:20.174Z,-5.40
2022-11-20T01:57:50.969Z,-5.20
2022-11-20T02:00:23.140Z,-5.10
2022-11-20T02:02:56.420Z,-5.30
2022-11-20T02:05:31.217Z,-4.90
2022-11-20T02:08:01.638Z,-4.90
2022-11-20T02:13:33.405Z,-4.80
2022-11-20T02:16:05.183Z,-4.80
2022-11-20T02:18:36.484Z,-4.80
2022-11-20T02:21:11.859Z,-5.00
2022-11-20T02:23:46.145Z,-4.60
2022-11-20T02:26:18.828Z,-4.70
2022-11-20T02:28:47.751Z,-4.70
2022-11-20T02:31:22.960Z,-4.70
2022-11-20T02:33:58.013Z,-4.70
2022-11-20T02:36:29.474Z,-4.70
2022-11-20T02:39:00.611Z,-4.90
2022-11-20T02:41:36.741Z,-4.90
2022-11-20T02:44:07.687Z,-5.20
2022-11-20T02:46:36.807Z,-4.90
2022-11-20T02:49:06.164Z,-5.20
2022-11-20T02:51:36.040Z,-4.90
2022-11-20T02:54:05.287Z,-4.90
2022-11-20T02:56:36.157Z,-4.90
2022-11-20T02:59:05.877Z,-4.90
2022-11-20T03:01:37.505Z,-5.00
2022-11-20T03:04:06.941Z,-4.90
2022-11-20T03:06:37.773Z,-4.80
2022-11-20T03:09:07.717Z,-4.90
2022-11-20T03:11:38.459Z,-4.60
2022-11-20T03:14:08.276Z,-4.60
2022-11-20T03:16:37.437Z,-4.50
2022-11-20T03:19:07.156Z,-4.50
2022-11-20T03:21:37.731Z,-4.40
2022-11-20T03:24:07.198Z,-4.40
2022-11-20T03:26:38.468Z,-4.40
2022-11-20T03:29:08.227Z,-4.30
2022-11-20T03:31:38.938Z,-4.30
2022-11-20T03:34:08.149Z,-4.20
2022-11-20T03:36:37.722Z,-4.20
2022-11-20T03:39:06.774Z,-4.20
2022-11-20T03:41:40.276Z,-4.10
2022-11-20T03:44:10.660Z,-4.20
2022-11-20T03:46:40.797Z,-4.10
2022-11-20T03:49:09.888Z,-4.00
2022-11-20T03:51:39.462Z,-4.00
2022-11-20T03:54:12.581Z,-3.90
2022-11-20T03:56:43.040Z,-3.90
2022-11-20T03:59:13.473Z,-3.80
2022-11-20T04:01:49.169Z,-3.80
2022-11-20T04:04:18.598Z,-3.70
2022-11-20T04:06:47.897Z,-3.70
2022-11-20T04:09:17.694Z,-3.70
2022-11-20T04:11:48.228Z,-3.60
2022-11-20T04:14:18.655Z,-3.60
2022-11-20T04:16:48.280Z,-3.60
2022-11-20T04:19:19.243Z,-3.50
2022-11-20T04:21:48.758Z,-3.50
2022-11-20T04:24:17.717Z,-3.40
2022-11-20T04:26:48.870Z,-3.40
2022-11-20T04:29:19.068Z,-3.40
2022-11-20T04:31:49.028Z,-3.50
2022-11-20T04:34:18.008Z,-3.50
2022-11-20T04:36:46.847Z,-3.40
2022-11-20T04:39:17.299Z,-3.40
2022-11-20T04:41:48.667Z,-3.40
2022-11-20T04:44:18.258Z,-3.40
2022-11-20T04:46:47.730Z,-3.50
2022-11-20T04:49:18.392Z,-3.40
2022-11-20T04:51:47.762Z,-3.50
2022-11-20T04:54:17.711Z,-3.40
2022-11-20T04:56:48.812Z,-3.40
2022-11-20T04:59:20.031Z,-3.30
2022-11-20T05:01:49.348Z,-3.40
2022-11-20T05:04:18.826Z,-3.50
2022-11-20T05:06:48.164Z,-3.50
2022-11-20T05:09:17.876Z,-3.40
2022-11-20T05:11:51.513Z,-3.40
2022-11-20T05:14:21.637Z,-3.40
2022-11-20T05:16:50.684Z,-3.40
2022-11-20T05:19:20.034Z,-3.50
2022-11-20T05:21:49.229Z,-3.50
2022-11-20T05:24:18.261Z,-3.50
2022-11-20T05:26:49.660Z,-3.50
2022-11-20T05:29:19.377Z,-3.50
2022-11-20T05:31:48.578Z,-3.60
2022-11-20T05:34:18.342Z,-3.60
2022-11-20T05:36:47.888Z,-3.60
2022-11-20T05:39:16.883Z,-3.60
2022-11-20T05:41:45.983Z,-3.70
2022-11-20T05:44:16.673Z,-3.70
2022-11-20T05:46:45.712Z,-3.70
2022-11-20T05:49:14.987Z,-3.70
2022-11-20T05:51:43.943Z,-3.70
2022-11-20T05:54:13.088Z,-3.70
2022-11-20T05:56:42.192Z,-3.70
2022-11-20T05:59:11.402Z,-3.80
2022-11-20T06:01:42.565Z,-3.90
2022-11-20T06:04:12.438Z,-4.20
2022-11-20T06:06:42.884Z,-3.90
2022-11-20T06:09:12.330Z,-3.90
2022-11-20T06:11:54.616Z,-3.80
2022-11-20T06:14:23.586Z,-3.80
2022-11-20T06:16:55.708Z,-3.70
2022-11-20T06:19:24.944Z,-3.60
2022-11-20T06:21:54.117Z,-3.60
2022-11-20T06:24:24.158Z,-3.50
2022-11-20T06:26:54.718Z,-3.40
2022-11-20T06:29:31.340Z,-3.30
2022-11-20T06:32:04.197Z,-3.30
2022-11-20T06:34:33.490Z,-3.20
2022-11-20T06:37:02.452Z,-3.20
2022-11-20T06:39:31.528Z,-3.20
2022-11-20T06:42:00.651Z,-3.20
2022-11-20T06:44:30.109Z,-3.20
2022-11-20T06:47:00.424Z,-3.20
2022-11-20T06:49:32.001Z,-3.20
2022-11-20T06:52:02.956Z,-3.10
2022-11-20T06:54:32.059Z,-3.00
2022-11-20T06:57:01.136Z,-2.80
2022-11-20T06:59:30.384Z,-2.80
2022-11-20T07:01:59.343Z,-2.70
2022-11-20T07:04:29.862Z,-2.60
2022-11-20T07:06:58.811Z,-2.60
2022-11-20T07:09:28.142Z,-2.60
2022-11-20T07:11:57.454Z,-2.60
2022-11-20T07:14:27.345Z,-2.70
2022-11-20T07:16:56.369Z,-2.60
2022-11-20T07:19:26.212Z,-2.60
2022-11-20T07:21:57.515Z,-2.40
2022-11-20T07:24:26.490Z,-2.40
2022-11-20T07:26:55.511Z,-2.30
2022-11-20T07:29:24.609Z,-2.20
2022-11-20T07:31:54.591Z,-2.20
2022-11-20T07:34:24.429Z,-2.10
2022-11-20T07:36:54.162Z,-2.20
2022-11-20T07:39:24.687Z,-2.10
2022-11-20T07:41:53.687Z,-2.10
2022-11-20T07:44:22.867Z,-2.10
2022-11-20T07:46:52.705Z,-2.10
2022-11-20T07:49:22.187Z,-1.90
2022-11-20T07:51:54.927Z,-1.80
2022-11-20T07:54:26.128Z,-1.80
2022-11-20T07:56:56.508Z,-1.80
2022-11-20T07:59:28.085Z,-1.70
2022-11-20T08:01:57.910Z,-1.70
2022-11-20T08:04:27.675Z,-1.80
2022-11-20T08:06:57.559Z,-1.80
2022-11-20T08:09:30.191Z,-1.90
2022-11-20T08:12:16.354Z,-2.00
2022-11-20T08:14:46.195Z,-2.10
2022-11-20T08:17:16.200Z,-2.20
2022-11-20T08:19:45.844Z,-2.20
2022-11-20T08:22:18.894Z,-2.20
2022-11-20T08:24:49.312Z,-2.20
2022-11-20T08:27:18.581Z,-2.20
2022-11-20T08:29:48.807Z,-2.10
2022-11-20T08:32:18.164Z,-2.00
2022-11-20T08:34:48.830Z,-1.90
2022-11-20T08:37:21.018Z,-2.00
2022-11-20T08:39:52.731Z,-2.00
2022-11-20T08:42:22.246Z,-2.00
2022-11-20T08:47:25.679Z,-1.80
2022-11-20T08:49:54.583Z,-1.40
2022-11-20T08:52:23.481Z,-1.20
2022-11-20T08:54:53.811Z,-0.90
2022-11-20T08:57:22.656Z,-0.60
2022-11-20T09:00:05.668Z,-0.50
2022-11-20T09:02:35.500Z,-0.40
2022-11-20T09:05:05.322Z,-0.60
2022-11-20T09:07:34.609Z,-0.40
2022-11-20T09:12:56.440Z,-0.20
2022-11-20T09:15:26.133Z,0.10
2022-11-20T09:17:55.286Z,-0.10
2022-11-20T09:20:24.440Z,0.10
2022-11-20T09:22:53.303Z,0.10
2022-11-20T09:25:24.091Z,0.00
2022-11-20T09:27:58.276Z,-0.10
2022-11-20T09:30:27.552Z,0.00
2022-11-20T09:32:56.381Z,0.10
2022-11-20T09:35:25.247Z,0.30
2022-11-20T09:37:54.666Z,0.20
2022-11-20T09:40:27.865Z,0.20
2022-11-20T09:43:04.677Z,0.30
2022-11-20T09:45:57.926Z,0.50
2022-11-20T09:49:00.884Z,0.40
2022-11-20T09:51:42.248Z,0.50
2022-11-20T09:54:18.630Z,0.60
2022-11-20T09:56:56.319Z,0.80
2022-11-20T09:59:43.219Z,0.60
2022-11-20T10:02:21.523Z,0.80
2022-11-20T10:04:55.695Z,0.90
2022-11-20T10:07:32.296Z,1.00
2022-11-20T10:10:02.631Z,1.00
2022-11-20T10:12:47.694Z,1.00
2022-11-20T10:15:30.412Z,0.70
2022-11-20T10:18:32.909Z,0.70
2022-11-20T10:21:12.200Z,0.80
2022-11-20T10:24:27.466Z,0.80
2022-11-20T10:27:06.026Z,0.90
2022-11-20T10:29:39.591Z,0.90
2022-11-20T10:32:20.071Z,1.00
2022-11-20T10:34:57.243Z,1.30
2022-11-20T10:37:37.846Z,1.30
2022-11-20T10:40:22.176Z,1.20
2022-11-20T10:42:57.476Z,1.10
2022-11-20T10:45:41.537Z,1.10
2022-11-20T10:48:29.523Z,1.30
2022-11-20T10:51:08.045Z,1.30
2022-11-20T10:53:48.107Z,1.10
2022-11-20T10:56:23.207Z,1.30
2022-11-20T10:59:02.568Z,1.30
2022-11-20T11:01:32.869Z,1.40
2022-11-20T11:04:02.268Z,1.20
2022-11-20T11:06:39.133Z,1.00
2022-11-20T11:09:14.577Z,1.00
2022-11-20T11:11:44.011Z,1.00
2022-11-20T11:14:15.303Z,1.30
2022-11-20T11:16:55.583Z,1.20
2022-11-20T11:19:24.801Z,1.30
2022-11-20T11:21:56.449Z,1.30
2022-11-20T11:24:41.837Z,1.50
2022-11-20T11:27:19.075Z,1.70
2022-11-20T11:29:48.442Z,1.70
2022-11-20T11:32:22.908Z,1.50
2022-11-20T11:35:02.230Z,1.60
2022-11-20T11:37:36.190Z,1.60
2022-11-20T11:43:00.411Z,2.10
2022-11-20T11:45:29.113Z,2.40
2022-11-20T11:48:03.347Z,2.40
2022-11-20T11:50:32.965Z,2.40
2022-11-20T11:53:12.094Z,2.60
2022-11-20T11:55:47.125Z,2.50
2022-11-20T11:58:25.532Z,2.70
2022-11-20T12:01:00.082Z,2.30
2022-11-20T12:03:38.204Z,2.50
2022-11-20T12:06:12.927Z,2.40
2022-11-20T12:08:50.493Z,2.60
2022-11-20T12:11:34.060Z,2.50
2022-11-20T12:14:12.155Z,2.60
2022-11-20T12:16:42.474Z,2.60
2022-11-20T12:19:15.378Z,2.70
2022-11-20T12:22:00.244Z,2.20
2022-11-20T12:24:56.654Z,2.30
2022-11-20T12:27:47.261Z,2.30
2022-11-20T12:30:18.545Z,2.40
2022-11-20T12:33:10.898Z,2.40
2022-11-20T12:36:02.318Z,2.40
2022-11-20T12:39:03.507Z,2.00
2022-11-20T12:42:20.542Z,1.80
2022-11-20T12:45:15.990Z,2.00
2022-11-20T12:48:29.827Z,2.10
2022-11-20T12:51:21.034Z,2.10
2022-11-20T12:54:03.723Z,1.90
2022-11-20T12:56:42.298Z,1.90
2022-11-20T12:59:28.536Z,1.90
2022-11-20T13:02:03.443Z,1.80
2022-11-20T13:05:08.621Z,1.80
2022-11-20T13:07:39.270Z,1.80
2022-11-20T13:10:19.503Z,1.70
2022-11-20T13:12:50.612Z,1.60
2022-11-20T13:15:33.847Z,1.40
2022-11-20T13:18:04.586Z,1.40
2022-11-20T13:20:35.907Z,1.50
2022-11-20T13:23:06.448Z,1.30
2022-11-20T13:25:37.261Z,1.30
2022-11-20T13:28:28.222Z,1.10
2022-11-20T13:31:02.113Z,1.10
2022-11-20T13:33:33.796Z,1.10
2022-11-20T13:36:04.866Z,1.10
2022-11-20T13:38:46.875Z,1.10
2022-11-20T13:41:35.412Z,1.00
2022-11-20T13:44:17.383Z,0.90
2022-11-20T13:46:48.493Z,0.80
2022-11-20T13:49:25.385Z,0.80
2022-11-20T13:51:59.867Z,0.80
2022-11-20T13:54:54.378Z,0.70
2022-11-20T13:57:48.846Z,0.70
2022-11-20T14:00:20.366Z,0.70
2022-11-20T14:03:01.980Z,0.60
2022-11-20T14:05:34.737Z,0.60
2022-11-20T14:08:08.014Z,0.50
2022-11-20T14:10:40.666Z,0.50
2022-11-20T14:13:22.148Z,0.50
2022-11-20T14:15:59.627Z,0.50
2022-11-20T14:18:30.172Z,0.50
2022-11-20T14:21:02.583Z,0.30
2022-11-20T14:23:32.453Z,0.30
2022-11-20T14:26:03.222Z,0.10
2022-11-20T14:28:34.217Z,-0.10
2022-11-20T14:31:03.820Z,-0.20
2022-11-20T14:33:36.172Z,-0.30
2022-11-20T14:36:05.973Z,-0.50
2022-11-20T14:38:38.682Z,-0.50
2022-11-20T14:41:19.017Z,-0.60
2022-11-20T14:43:50.070Z,-0.60
2022-11-20T14:46:19.803Z,-0.60
2022-11-20T14:48:52.005Z,-0.60
2022-11-20T14:51:33.149Z,-0.60
2022-11-20T14:54:12.831Z,-0.50
2022-11-20T14:56:43.518Z,-0.50
2022-11-20T14:59:13.035Z,-0.50
2022-11-20T15:01:42.591Z,-0.40
2022-11-20T15:04:14.361Z,-0.40
2022-11-20T15:06:53.173Z,-0.50
2022-11-20T15:09:22.133Z,-0.40
2022-11-20T15:12:00.232Z,-0.40
2022-11-20T15:14:31.544Z,-0.40
2022-11-20T15:17:02.171Z,-0.40
2022-11-20T15:19:32.015Z,-0.40
2022-11-20T15:22:01.181Z,-0.30
2022-11-20T15:24:30.386Z,-0.30
2022-11-20T15:27:01.432Z,-0.30
2022-11-20T15:29:31.232Z,-0.20
2022-11-20T15:32:02.205Z,-0.20
2022-11-20T15:34:37.725Z,-0.20
2022-11-20T15:37:06.853Z,-0.10
2022-11-20T15:39:36.081Z,-0.10
2022-11-20T15:42:07.073Z,-0.10
2022-11-20T15:44:36.156Z,0.00
2022-11-20T15:47:24.127Z,0.00
2022-11-20T15:49:54.595Z,0.10
2022-11-20T15:52:23.681Z,0.00
2022-11-20T15:54:52.548Z,0.00
2022-11-20T15:57:23.197Z,0.00
2022-11-20T15:59:52.543Z,0.10
2022-11-20T16:02:24.432Z,0.10
2022-11-20T16:04:53.831Z,0.10
2022-11-20T16:07:22.798Z,0.20
2022-11-20T16:09:52.323Z,0.30
2022-11-20T16:12:36.551Z,0.20
2022-11-20T16:15:23.404Z,0.20
2022-11-20T16:17:52.670Z,0.20
2022-11-20T16:20:22.506Z,0.20
2022-11-20T16:22:51.781Z,0.10
2022-11-20T16:25:20.811Z,0.10
2022-11-20T16:27:51.532Z,0.10
2022-11-20T16:30:20.612Z,0.10
2022-11-20T16:32:51.560Z,-0.10
2022-11-20T16:35:20.989Z,-0.10
2022-11-20T16:37:50.770Z,-0.10
2022-11-20T16:40:20.380Z,-0.20
2022-11-20T16:42:51.291Z,-0.20
2022-11-20T16:45:26.086Z,-0.20
2022-11-20T16:47:57.356Z,-0.10
2022-11-20T16:50:26.826Z,-0.10
2022-11-20T16:52:56.327Z,-0.10
2022-11-20T16:55:26.018Z,-0.10
2022-11-20T16:57:56.785Z,-0.10
2022-11-20T17:00:26.168Z,-0.10
2022-11-20T17:02:55.468Z,0.00
2022-11-20T17:05:29.392Z,-0.10
2022-11-20T17:07:58.775Z,-0.10
2022-11-20T17:10:28.821Z,-0.10
2022-11-20T17:12:59.577Z,-0.10
2022-11-20T17:15:28.925Z,-0.10
2022-11-20T17:17:58.592Z,-0.10
2022-11-20T17:20:28.001Z,-0.10
2022-11-20T17:23:00.027Z,-0.10
2022-11-20T17:25:29.398Z,-0.20
2022-11-20T17:28:00.513Z,-0.20
2022-11-20T17:30:29.907Z,-0.20
2022-11-20T17:33:00.742Z,-0.20
2022-11-20T17:35:31.171Z,-0.10
2022-11-20T17:38:00.706Z,-0.10
2022-11-20T17:40:30.017Z,-0.30
2022-11-20T17:43:01.099Z,-0.20
2022-11-20T17:45:30.498Z,-0.10
2022-11-20T17:48:00.287Z,-0.20
2022-11-20T17:50:30.311Z,-0.20
2022-11-20T17:52:59.678Z,-0.30
2022-11-20T17:55:54.257Z,-0.30
2022-11-20T17:58:29.231Z,-0.30
2022-11-20T18:01:06.275Z,-0.30
2022-11-20T18:03:35.859Z,-0.40
2022-11-20T18:06:12.623Z,-0.40
2022-11-20T18:08:42.774Z,-0.40
2022-11-20T18:11:13.343Z,-0.30
2022-11-20T18:14:09.672Z,-0.40
2022-11-20T18:16:43.683Z,-0.40
2022-11-20T18:19:13.891Z,-0.50
2022-11-20T18:21:43.942Z,-0.40
2022-11-20T18:24:12.859Z,-0.40
2022-11-20T18:26:45.344Z,-0.40
2022-11-20T18:29:18.402Z,-0.50
2022-11-20T18:31:47.976Z,-0.50
2022-11-20T18:34:17.370Z,-0.40
2022-11-20T18:36:47.260Z,-0.40
2022-11-20T18:39:17.774Z,-0.40
2022-11-20T18:42:04.729Z,-0.40
2022-11-20T18:44:54.633Z,-0.40
2022-11-20T18:47:26.540Z,-0.50
2022-11-20T18:49:57.990Z,-0.50
2022-11-20T18:52:29.822Z,-0.40
2022-11-20T18:54:59.569Z,-0.50
2022-11-20T18:57:30.470Z,-0.50
2022-11-20T19:00:07.944Z,-0.50
2022-11-20T19:02:42.340Z,-0.50
2022-11-20T19:05:12.674Z,-0.50
2022-11-20T19:07:42.411Z,-0.50
2022-11-20T19:10:12.416Z,-0.60
2022-11-20T19:12:41.874Z,-0.60
2022-11-20T19:15:13.911Z,-0.70
2022-11-20T19:17:43.579Z,-0.70
2022-11-20T19:20:13.397Z,-0.60
2022-11-20T19:22:43.691Z,-0.60
2022-11-20T19:25:13.029Z,-0.60
2022-11-20T19:27:42.450Z,-0.60
2022-11-20T19:30:14.730Z,-0.60
2022-11-20T19:32:43.740Z,-0.60
2022-11-20T19:35:14.132Z,-0.50
2022-11-20T19:37:43.036Z,-0.50
2022-11-20T19:40:13.474Z,-0.40
2022-11-20T19:42:42.388Z,-0.50
2022-11-20T19:45:13.415Z,-0.40
2022-11-20T19:50:33.467Z,-0.40
2022-11-20T19:53:02.840Z,-0.50
2022-11-20T19:55:32.475Z,-0.50
2022-11-20T19:58:01.848Z,-0.50
2022-11-20T20:00:33.136Z,-0.60
2022-11-20T20:03:03.257Z,-0.60
2022-11-20T20:05:33.486Z,-0.60
2022-11-20T20:08:03.217Z,-0.60
2022-11-20T20:10:32.812Z,-0.60
2022-11-20T20:13:19.870Z,-0.60
2022-11-20T20:15:50.830Z,-0.60
2022-11-20T20:18:20.425Z,-0.50
2022-11-20T20:20:49.830Z,-0.50
2022-11-20T20:23:19.185Z,-0.50
2022-11-20T20:25:50.831Z,-0.40
2022-11-20T20:28:20.472Z,-0.60
2022-11-20T20:30:51.281Z,-0.60
2022-11-20T20:33:20.817Z,-0.60
2022-11-20T20:35:50.402Z,-0.60
2022-11-20T20:38:20.631Z,-0.60
2022-11-20T20:40:50.685Z,-0.60
2022-11-20T20:43:19.928Z,-0.60
2022-11-20T20:45:51.492Z,-0.70
2022-11-20T20:48:22.977Z,-0.60
2022-11-20T20:50:59.121Z,-0.50
2022-11-20T20:53:29.422Z,-0.50
2022-11-20T20:55:59.433Z,-0.60
2022-11-20T20:58:29.536Z,-0.60
2022-11-20T21:01:04.344Z,-0.60
2022-11-20T21:03:42.142Z,-0.50
2022-11-20T21:06:16.505Z,-0.50
2022-11-20T21:08:46.199Z,-0.50
2022-11-20T21:11:16.671Z,-0.50
2022-11-20T21:16:41.268Z,-0.60
2022-11-20T21:19:19.454Z,-0.50
2022-11-20T21:22:04.890Z,-0.40
2022-11-20T21:24:35.746Z,-0.40
2022-11-20T21:27:06.782Z,-0.50
2022-11-20T21:29:36.112Z,-0.50
2022-11-20T21:32:30.075Z,-0.40
2022-11-20T21:34:58.845Z,-0.40
2022-11-20T21:37:27.607Z,-0.40
2022-11-20T21:39:56.431Z,-0.40
2022-11-20T21:42:25.824Z,-0.40
2022-11-20T21:44:54.708Z,-0.30
2022-11-20T21:47:25.320Z,-0.40
2022-11-20T21:49:54.412Z,-0.40
2022-11-20T21:52:25.520Z,-0.40
2022-11-20T21:54:54.744Z,-0.40
2022-11-20T21:57:24.036Z,-0.30
2022-11-20T21:59:53.017Z,-0.40
2022-11-20T22:02:22.070Z,-0.30
2022-11-20T22:04:52.980Z,-0.30
2022-11-20T22:07:22.029Z,-0.30
2022-11-20T22:09:51.215Z,-0.30
2022-11-20T22:12:20.485Z,-0.30
2022-11-20T22:14:48.291Z,-0.30
2022-11-20T22:17:17.136Z,-0.40
2022-11-20T22:19:46.155Z,-0.40
2022-11-20T22:22:23.202Z,-0.30
2022-11-20T22:24:52.251Z,-0.40
2022-11-20T22:27:21.101Z,-0.30
2022-11-20T22:29:49.915Z,-0.30
2022-11-20T22:32:21.433Z,-0.30
2022-11-20T22:34:56.323Z,-0.20
2022-11-20T22:37:43.822Z,-0.30
2022-11-20T22:40:18.910Z,-0.20
2022-11-20T22:42:48.127Z,-0.20
2022-11-20T22:45:17.277Z,-0.20
2022-11-20T22:47:46.179Z,-0.30
2022-11-20T22:50:15.461Z,-0.20
2022-11-20T22:52:46.402Z,-0.50
2022-11-20T22:55:16.527Z,-0.30
2022-11-20T22:57:45.492Z,-0.30
2022-11-20T23:00:15.696Z,-0.30
2022-11-20T23:02:53.770Z,-0.30
2022-11-20T23:05:23.388Z,-0.30
2022-11-20T23:07:53.819Z,-0.30
2022-11-20T23:10:22.707Z,-0.40
2022-11-20T23:12:51.562Z,-0.30
2022-11-20T23:15:25.007Z,-0.30
2022-11-20T23:17:54.117Z,-0.20
2022-11-20T23:20:23.177Z,-0.30
2022-11-20T23:22:53.445Z,-0.30
2022-11-20T23:25:22.336Z,-0.20
2022-11-20T23:27:51.188Z,-0.20
2022-11-20T23:30:23.586Z,-0.30
2022-11-20T23:32:52.343Z,-0.30
2022-11-20T23:35:21.512Z,-0.30
2022-11-20T23:37:50.404Z,-0.30
2022-11-20T23:40:21.232Z,-0.30
2022-11-20T23:43:03.925Z,-0.40
2022-11-20T23:45:33.013Z,-0.40
2022-11-20T23:48:01.798Z,-0.30
2022-11-20T23:50:30.671Z,-0.30
2022-11-20T23:53:02.035Z,-0.30
2022-11-20T23:55:32.349Z,-0.20
2022-11-20T23:58:01.308Z,-0.30
